createdAt,value
2019-02-11T00:00:05.890Z,7.10
2019-02-11T00:01:05.966Z,7.11
2019-02-11T00:02:06.206Z,7.11
2019-02-11T00:03:06.425Z,7.04
2019-02-11T00:04:06.649Z,7.05
2019-02-11T00:05:07.113Z,7.04
2019-02-11T00:06:07.064Z,6.95
2019-02-11T00:07:07.274Z,6.95
2019-02-11T00:08:07.560Z,6.96
2019-02-11T00:09:07.704Z,6.89
2019-02-11T00:10:07.946Z,6.89
2019-02-11T00:11:08.138Z,6.77
2019-02-11T00:12:08.353Z,6.78
2019-02-11T00:13:10.665Z,6.82
2019-02-11T00:14:08.780Z,6.70
2019-02-11T00:15:09.036Z,6.60
2019-02-11T00:16:09.285Z,6.65
2019-02-11T00:17:09.445Z,6.59
2019-02-11T00:18:09.664Z,6.56
2019-02-11T00:19:11.043Z,6.49
2019-02-11T00:20:10.155Z,6.31
2019-02-11T00:21:10.340Z,6.41
2019-02-11T00:22:10.557Z,6.34
2019-02-11T00:23:10.788Z,6.25
2019-02-11T00:24:10.986Z,6.34
2019-02-11T00:25:11.343Z,6.19
2019-02-11T00:26:11.415Z,6.13
2019-02-11T00:27:11.632Z,6.10
2019-02-11T00:28:11.864Z,6.07
2019-02-11T00:29:12.047Z,6.06
2019-02-11T00:30:12.304Z,6.05
2019-02-11T00:31:12.501Z,5.91
2019-02-11T00:32:12.697Z,5.98
2019-02-11T00:33:13.068Z,5.92
2019-02-11T00:34:13.136Z,5.92
2019-02-11T00:35:13.421Z,5.91
2019-02-11T00:36:13.578Z,5.90
2019-02-11T00:37:13.804Z,5.88
2019-02-11T00:38:14.040Z,5.76
2019-02-11T00:39:14.216Z,5.84
2019-02-11T00:40:14.456Z,5.83
2019-02-11T00:41:14.767Z,5.79
2019-02-11T00:42:14.862Z,5.73
2019-02-11T00:43:19.146Z,5.74
2019-02-11T00:44:15.298Z,5.65
2019-02-11T00:45:15.527Z,5.76
2019-02-11T00:46:15.731Z,5.77
2019-02-11T00:47:15.944Z,5.64
2019-02-11T00:48:16.176Z,5.61
2019-02-11T00:49:16.417Z,5.62
2019-02-11T00:50:16.596Z,5.61
2019-02-11T00:51:16.774Z,5.59
2019-02-11T00:52:17.003Z,5.59
2019-02-11T00:53:17.244Z,5.56
2019-02-11T00:54:17.449Z,5.62
2019-02-11T00:55:17.699Z,5.64
2019-02-11T00:56:17.850Z,5.64
2019-02-11T00:57:18.126Z,5.54
2019-02-11T00:58:18.386Z,5.55
2019-02-11T00:59:18.522Z,5.52
2019-02-11T01:00:18.770Z,5.49
2019-02-11T01:01:18.940Z,5.43
2019-02-11T01:02:19.171Z,5.46
2019-02-11T01:03:19.414Z,5.46
2019-02-11T01:04:19.613Z,5.40
2019-02-11T01:05:19.878Z,5.40
2019-02-11T01:06:20.176Z,5.38
2019-02-11T01:07:20.266Z,5.34
2019-02-11T01:08:20.493Z,5.36
2019-02-11T01:09:20.691Z,5.22
2019-02-11T01:10:20.915Z,5.25
2019-02-11T01:11:21.126Z,5.26
2019-02-11T01:12:21.325Z,5.22
2019-02-11T01:13:27.569Z,5.23
2019-02-11T01:14:22.886Z,5.22
2019-02-11T01:15:21.988Z,5.23
2019-02-11T01:16:22.215Z,5.15
2019-02-11T01:17:22.415Z,5.15
2019-02-11T01:18:22.661Z,5.08
2019-02-11T01:19:22.860Z,5.07
2019-02-11T01:20:23.084Z,5.04
2019-02-11T01:21:23.308Z,5.07
2019-02-11T01:22:23.562Z,5.07
2019-02-11T01:23:23.729Z,4.97
2019-02-11T01:24:23.954Z,5.04
2019-02-11T01:25:24.168Z,4.83
2019-02-11T01:26:24.390Z,4.95
2019-02-11T01:27:24.578Z,4.87
2019-02-11T01:28:24.817Z,4.82
2019-02-11T01:29:25.008Z,4.78
2019-02-11T01:30:25.440Z,4.84
2019-02-11T01:31:25.520Z,4.70
2019-02-11T01:32:25.695Z,4.64
2019-02-11T01:33:25.936Z,4.64
2019-02-11T01:34:26.120Z,4.56
2019-02-11T01:35:26.356Z,4.60
2019-02-11T01:36:26.584Z,4.48
2019-02-11T01:37:26.772Z,4.52
2019-02-11T01:38:27.040Z,4.46
2019-02-11T01:39:27.323Z,4.32
2019-02-11T01:40:27.437Z,4.34
2019-02-11T01:41:27.664Z,4.21
2019-02-11T01:42:28.086Z,4.28
2019-02-11T01:43:35.656Z,4.13
2019-02-11T01:44:29.274Z,4.07
2019-02-11T01:45:28.523Z,4.03
2019-02-11T01:46:28.745Z,3.89
2019-02-11T01:47:29.074Z,3.81
2019-02-11T01:48:29.179Z,3.67
2019-02-11T01:49:29.363Z,3.68
2019-02-11T01:50:29.624Z,3.56
2019-02-11T01:51:29.826Z,3.53
2019-02-11T01:52:30.019Z,3.46
2019-02-11T01:53:30.257Z,3.34
2019-02-11T01:54:30.455Z,3.37
2019-02-11T01:55:30.774Z,3.22
2019-02-11T01:56:30.887Z,3.18
2019-02-11T01:57:31.092Z,3.00
2019-02-11T01:58:31.324Z,3.03
2019-02-11T01:59:31.524Z,3.01
2019-02-11T02:00:31.731Z,2.97
2019-02-11T02:01:31.972Z,2.91
2019-02-11T02:02:32.183Z,2.83
2019-02-11T02:03:32.447Z,2.79
2019-02-11T02:04:32.588Z,2.79
2019-02-11T02:05:32.837Z,2.65
2019-02-11T02:06:33.062Z,2.76
2019-02-11T02:07:33.246Z,2.69
2019-02-11T02:08:33.486Z,2.70
2019-02-11T02:09:33.687Z,2.68
2019-02-11T02:10:33.901Z,2.68
2019-02-11T02:11:34.192Z,2.65
2019-02-11T02:12:34.359Z,2.65
2019-02-11T02:13:34.546Z,2.59
2019-02-11T02:14:34.761Z,2.58
2019-02-11T02:15:34.988Z,2.57
2019-02-11T02:16:35.195Z,2.55
2019-02-11T02:17:35.408Z,2.47
2019-02-11T02:18:35.640Z,2.52
2019-02-11T02:19:35.874Z,2.51
2019-02-11T02:20:36.263Z,2.47
2019-02-11T02:21:36.343Z,2.54
2019-02-11T02:22:36.556Z,2.46
2019-02-11T02:23:36.767Z,2.50
2019-02-11T02:24:37.029Z,2.47
2019-02-11T02:25:37.223Z,2.40
2019-02-11T02:26:37.457Z,2.57
2019-02-11T02:27:37.631Z,2.47
2019-02-11T02:28:37.980Z,2.58
2019-02-11T02:29:38.093Z,2.50
2019-02-11T02:30:38.296Z,2.55
2019-02-11T02:31:38.522Z,2.57
2019-02-11T02:32:38.709Z,2.59
2019-02-11T02:33:38.925Z,2.68
2019-02-11T02:34:39.187Z,2.65
2019-02-11T02:35:39.403Z,2.65
2019-02-11T02:36:39.639Z,2.69
2019-02-11T02:37:39.788Z,2.64
2019-02-11T02:38:40.002Z,2.65
2019-02-11T02:39:40.277Z,2.65
2019-02-11T02:40:40.439Z,2.57
2019-02-11T02:41:40.740Z,2.51
2019-02-11T02:42:40.863Z,2.57
2019-02-11T02:43:41.090Z,2.52
2019-02-11T02:44:41.414Z,2.51
2019-02-11T02:45:41.557Z,2.52
2019-02-11T02:46:41.766Z,2.44
2019-02-11T02:47:41.957Z,2.57
2019-02-11T02:48:42.181Z,2.52
2019-02-11T02:49:42.424Z,2.44
2019-02-11T02:50:42.610Z,2.40
2019-02-11T02:51:42.846Z,2.32
2019-02-11T02:52:43.056Z,2.23
2019-02-11T02:53:43.419Z,2.25
2019-02-11T02:54:43.516Z,2.23
2019-02-11T02:55:43.702Z,2.23
2019-02-11T02:56:43.935Z,2.18
2019-02-11T02:57:44.143Z,2.26
2019-02-11T02:58:44.348Z,2.21
2019-02-11T02:59:44.573Z,2.22
2019-02-11T03:00:44.797Z,2.21
2019-02-11T03:01:45.348Z,2.07
2019-02-11T03:02:45.197Z,1.97
2019-02-11T03:03:45.416Z,2.04
2019-02-11T03:04:45.632Z,2.05
2019-02-11T03:05:45.870Z,1.98
2019-02-11T03:06:46.079Z,2.00
2019-02-11T03:07:46.275Z,1.89
2019-02-11T03:08:46.491Z,1.82
2019-02-11T03:09:46.817Z,1.84
2019-02-11T03:10:46.919Z,1.86
2019-02-11T03:11:47.138Z,1.79
2019-02-11T03:12:47.336Z,1.81
2019-02-11T03:13:47.553Z,1.79
2019-02-11T03:14:47.782Z,1.74
2019-02-11T03:15:48.003Z,1.71
2019-02-11T03:16:48.198Z,1.81
2019-02-11T03:17:48.465Z,1.79
2019-02-11T03:18:48.623Z,1.74
2019-02-11T03:19:49.065Z,1.82
2019-02-11T03:20:49.041Z,1.79
2019-02-11T03:21:49.263Z,1.81
2019-02-11T03:22:49.475Z,1.81
2019-02-11T03:23:49.730Z,1.86
2019-02-11T03:24:49.942Z,1.84
2019-02-11T03:25:50.157Z,1.79
2019-02-11T03:26:50.482Z,1.82
2019-02-11T03:27:50.665Z,1.89
2019-02-11T03:28:50.920Z,1.89
2019-02-11T03:29:51.148Z,1.89
2019-02-11T03:30:51.365Z,1.92
2019-02-11T03:31:51.610Z,1.93
2019-02-11T03:32:51.786Z,1.86
2019-02-11T03:33:52.057Z,1.92
2019-02-11T03:34:52.390Z,1.85
2019-02-11T03:35:52.492Z,1.88
2019-02-11T03:36:52.692Z,1.81
2019-02-11T03:37:52.929Z,1.88
2019-02-11T03:38:53.192Z,1.79
2019-02-11T03:39:53.407Z,1.88
2019-02-11T03:40:53.612Z,1.85
2019-02-11T03:41:53.835Z,1.84
2019-02-11T03:42:54.142Z,1.84
2019-02-11T03:43:54.273Z,1.88
2019-02-11T03:44:54.507Z,1.86
2019-02-11T03:45:54.712Z,1.88
2019-02-11T03:46:54.942Z,1.89
2019-02-11T03:47:55.172Z,2.01
2019-02-11T03:48:55.367Z,2.04
2019-02-11T03:49:55.616Z,2.04
2019-02-11T03:50:55.892Z,2.05
2019-02-11T03:51:56.069Z,2.07
2019-02-11T03:52:56.286Z,2.05
2019-02-11T03:53:56.514Z,2.12
2019-02-11T03:54:56.713Z,2.21
2019-02-11T03:55:57.012Z,2.26
2019-02-11T03:56:57.186Z,2.26
2019-02-11T03:57:57.412Z,2.30
2019-02-11T03:58:57.647Z,2.37
2019-02-11T03:59:57.842Z,2.51
2019-02-11T04:00:58.025Z,2.47
2019-02-11T04:01:58.275Z,2.47
2019-02-11T04:02:58.444Z,2.47
2019-02-11T04:03:58.660Z,2.58
2019-02-11T04:04:58.882Z,2.52
2019-02-11T04:05:59.099Z,2.57
2019-02-11T04:06:59.553Z,2.64
2019-02-11T04:07:59.733Z,2.64
2019-02-11T04:08:59.809Z,2.73
2019-02-11T04:10:00.038Z,2.75
2019-02-11T04:11:00.258Z,2.69
2019-02-11T04:12:00.487Z,2.75
2019-02-11T04:13:00.715Z,2.82
2019-02-11T04:14:00.918Z,2.80
2019-02-11T04:15:01.159Z,2.82
2019-02-11T04:16:01.438Z,2.88
2019-02-11T04:17:01.588Z,2.87
2019-02-11T04:18:01.825Z,2.93
2019-02-11T04:19:02.025Z,3.03
2019-02-11T04:20:02.259Z,3.06
2019-02-11T04:21:02.450Z,3.09
2019-02-11T04:22:02.702Z,3.13
2019-02-11T04:23:02.932Z,3.18
2019-02-11T04:24:03.190Z,3.31
2019-02-11T04:25:03.350Z,3.22
2019-02-11T04:26:03.551Z,3.24
2019-02-11T04:27:03.784Z,3.36
2019-02-11T04:28:04.027Z,3.33
2019-02-11T04:29:04.234Z,3.45
2019-02-11T04:30:04.474Z,3.31
2019-02-11T04:31:04.684Z,3.41
2019-02-11T04:32:04.930Z,3.48
2019-02-11T04:33:05.117Z,3.41
2019-02-11T04:34:05.357Z,3.50
2019-02-11T04:35:05.573Z,3.55
2019-02-11T04:36:05.798Z,3.56
2019-02-11T04:37:06.046Z,3.59
2019-02-11T04:38:06.269Z,3.58
2019-02-11T04:39:06.453Z,3.64
2019-02-11T04:40:06.708Z,3.74
2019-02-11T04:41:07.004Z,3.77
2019-02-11T04:42:07.158Z,3.73
2019-02-11T04:43:07.381Z,3.77
2019-02-11T04:44:07.599Z,3.88
2019-02-11T04:45:07.847Z,3.89
2019-02-11T04:46:08.068Z,3.89
2019-02-11T04:47:08.287Z,3.94
2019-02-11T04:48:08.522Z,3.94
2019-02-11T04:49:08.793Z,3.91
2019-02-11T04:50:08.954Z,3.92
2019-02-11T04:51:09.179Z,3.89
2019-02-11T04:52:09.405Z,3.95
2019-02-11T04:53:09.652Z,3.92
2019-02-11T04:54:09.824Z,3.95
2019-02-11T04:55:10.062Z,4.03
2019-02-11T04:56:10.301Z,3.96
2019-02-11T04:57:10.577Z,4.09
2019-02-11T04:58:10.734Z,4.04
2019-02-11T04:59:10.935Z,4.00
2019-02-11T05:00:11.158Z,3.99
2019-02-11T05:01:11.414Z,4.07
2019-02-11T05:02:11.859Z,4.07
2019-02-11T05:03:11.860Z,4.06
2019-02-11T05:04:12.071Z,4.07
2019-02-11T05:05:12.357Z,4.09
2019-02-11T05:06:12.490Z,4.09
2019-02-11T05:07:12.743Z,4.04
2019-02-11T05:08:12.981Z,4.10
2019-02-11T05:09:13.165Z,4.04
2019-02-11T05:10:13.380Z,4.12
2019-02-11T05:11:13.637Z,4.06
2019-02-11T05:12:13.820Z,4.09
2019-02-11T05:13:14.134Z,4.10
2019-02-11T05:14:14.320Z,4.07
2019-02-11T05:15:14.511Z,4.20
2019-02-11T05:16:14.747Z,4.16
2019-02-11T05:17:14.952Z,4.12
2019-02-11T05:18:16.860Z,4.09
2019-02-11T05:19:15.467Z,4.07
2019-02-11T05:20:15.636Z,4.16
2019-02-11T05:21:15.889Z,4.13
2019-02-11T05:22:16.203Z,4.18
2019-02-11T05:23:16.316Z,4.12
2019-02-11T05:24:16.519Z,4.20
2019-02-11T05:25:16.744Z,4.16
2019-02-11T05:26:16.980Z,4.21
2019-02-11T05:27:17.200Z,4.20
2019-02-11T05:28:17.405Z,4.20
2019-02-11T05:29:17.630Z,4.20
2019-02-11T05:30:17.970Z,4.18
2019-02-11T05:31:18.096Z,4.14
2019-02-11T05:32:18.314Z,4.22
2019-02-11T05:33:18.568Z,4.16
2019-02-11T05:34:18.749Z,4.30
2019-02-11T05:35:18.970Z,4.24
2019-02-11T05:36:19.208Z,4.28
2019-02-11T05:37:19.441Z,4.27
2019-02-11T05:38:19.721Z,4.38
2019-02-11T05:39:19.836Z,4.40
2019-02-11T05:40:20.067Z,4.34
2019-02-11T05:41:20.303Z,4.40
2019-02-11T05:42:20.509Z,4.42
2019-02-11T05:43:20.748Z,4.46
2019-02-11T05:44:20.969Z,4.45
2019-02-11T05:45:21.171Z,4.45
2019-02-11T05:46:21.482Z,4.38
2019-02-11T05:47:21.635Z,4.39
2019-02-11T05:48:21.862Z,4.40
2019-02-11T05:49:22.106Z,4.45
2019-02-11T05:50:22.331Z,4.50
2019-02-11T05:51:22.548Z,4.39
2019-02-11T05:52:22.771Z,4.49
2019-02-11T05:53:22.992Z,4.38
2019-02-11T05:54:23.247Z,4.43
2019-02-11T05:55:23.906Z,4.45
2019-02-11T05:56:23.659Z,4.39
2019-02-11T05:57:23.882Z,4.45
2019-02-11T05:58:24.101Z,4.48
2019-02-11T05:59:24.342Z,4.45
2019-02-11T06:00:24.550Z,4.49
2019-02-11T06:01:24.787Z,4.45
2019-02-11T06:02:24.987Z,4.50
2019-02-11T06:03:25.335Z,4.48
2019-02-11T06:04:25.464Z,4.45
2019-02-11T06:05:25.655Z,4.48
2019-02-11T06:06:25.896Z,4.45
2019-02-11T06:07:26.098Z,4.57
2019-02-11T06:08:26.332Z,4.57
2019-02-11T06:09:26.572Z,4.53
2019-02-11T06:10:26.781Z,4.57
2019-02-11T06:11:27.086Z,4.60
2019-02-11T06:12:27.205Z,4.56
2019-02-11T06:13:27.431Z,4.58
2019-02-11T06:14:27.672Z,4.57
2019-02-11T06:15:27.881Z,4.57
2019-02-11T06:16:28.115Z,4.63
2019-02-11T06:17:28.335Z,4.60
2019-02-11T06:18:28.526Z,4.56
2019-02-11T06:19:28.839Z,4.60
2019-02-11T06:20:28.988Z,4.57
2019-02-11T06:21:29.232Z,4.61
2019-02-11T06:22:29.440Z,4.66
2019-02-11T06:23:29.765Z,4.67
2019-02-11T06:24:29.877Z,4.67
2019-02-11T06:25:30.094Z,4.63
2019-02-11T06:26:30.341Z,4.57
2019-02-11T06:27:30.597Z,4.63
2019-02-11T06:28:30.791Z,4.63
2019-02-11T06:29:31.045Z,4.63
2019-02-11T06:30:31.211Z,4.60
2019-02-11T06:31:31.451Z,4.63
2019-02-11T06:32:31.647Z,4.58
2019-02-11T06:33:31.877Z,4.61
2019-02-11T06:34:33.824Z,4.64
2019-02-11T06:35:32.325Z,4.66
2019-02-11T06:36:32.686Z,4.66
2019-02-11T06:37:32.808Z,4.75
2019-02-11T06:38:32.991Z,4.75
2019-02-11T06:39:33.229Z,4.78
2019-02-11T06:40:33.418Z,4.89
2019-02-11T06:41:33.879Z,4.71
2019-02-11T06:42:33.900Z,4.75
2019-02-11T06:43:34.092Z,4.67
2019-02-11T06:44:34.459Z,4.68
2019-02-11T06:45:34.514Z,4.68
2019-02-11T06:46:34.755Z,4.71
2019-02-11T06:47:35.245Z,4.67
2019-02-11T06:48:35.216Z,4.60
2019-02-11T06:49:42.035Z,4.61
2019-02-11T06:50:35.662Z,4.64
2019-02-11T06:51:35.890Z,4.74
2019-02-11T06:52:40.689Z,4.67
2019-02-11T06:53:36.323Z,4.67
2019-02-11T06:54:40.600Z,4.64
2019-02-11T06:55:36.760Z,4.71
2019-02-11T06:56:41.630Z,4.75
2019-02-11T06:57:37.203Z,4.75
2019-02-11T06:58:37.430Z,4.66
2019-02-11T06:59:37.717Z,4.76
2019-02-11T07:00:37.906Z,4.78
2019-02-11T07:01:38.095Z,4.82
2019-02-11T07:02:38.301Z,4.84
2019-02-11T07:03:38.526Z,4.76
2019-02-11T07:04:38.797Z,4.84
2019-02-11T07:05:38.952Z,4.83
2019-02-11T07:06:39.211Z,4.84
2019-02-11T07:07:39.406Z,4.94
2019-02-11T07:08:39.670Z,4.92
2019-02-11T07:09:39.885Z,4.90
2019-02-11T07:10:40.063Z,4.90
2019-02-11T07:11:40.314Z,4.87
2019-02-11T07:12:40.533Z,4.92
2019-02-11T07:13:40.754Z,4.94
2019-02-11T07:14:41.040Z,5.00
2019-02-11T07:15:41.198Z,5.07
2019-02-11T07:16:41.438Z,5.02
2019-02-11T07:17:41.769Z,4.98
2019-02-11T07:18:41.874Z,5.04
2019-02-11T07:19:42.145Z,5.08
2019-02-11T07:20:42.314Z,5.07
2019-02-11T07:21:42.540Z,5.00
2019-02-11T07:22:42.746Z,4.95
2019-02-11T07:23:42.982Z,4.97
2019-02-11T07:24:43.240Z,5.01
2019-02-11T07:25:43.657Z,4.94
2019-02-11T07:26:43.631Z,5.05
2019-02-11T07:27:43.907Z,5.04
2019-02-11T07:28:44.133Z,5.02
2019-02-11T07:29:44.343Z,5.00
2019-02-11T07:30:44.559Z,5.10
2019-02-11T07:31:44.781Z,5.13
2019-02-11T07:32:45.003Z,4.89
2019-02-11T07:33:45.308Z,5.08
2019-02-11T07:34:45.493Z,5.08
2019-02-11T07:35:45.675Z,5.15
2019-02-11T07:36:45.906Z,5.13
2019-02-11T07:37:46.141Z,5.10
2019-02-11T07:38:46.342Z,5.16
2019-02-11T07:39:46.612Z,5.22
2019-02-11T07:40:46.830Z,5.22
2019-02-11T07:41:47.066Z,5.25
2019-02-11T07:42:47.248Z,5.22
2019-02-11T07:43:47.450Z,5.31
2019-02-11T07:44:47.682Z,5.34
2019-02-11T07:45:47.902Z,5.23
2019-02-11T07:46:48.126Z,5.25
2019-02-11T07:47:48.370Z,5.26
2019-02-11T07:48:48.602Z,5.28
2019-02-11T07:49:48.834Z,5.28
2019-02-11T07:50:49.066Z,5.28
2019-02-11T07:51:49.241Z,5.28
2019-02-11T07:52:49.480Z,5.33
2019-02-11T07:53:49.690Z,5.37
2019-02-11T07:54:49.916Z,5.36
2019-02-11T07:55:50.128Z,5.37
2019-02-11T07:56:50.351Z,5.43
2019-02-11T07:57:50.618Z,5.37
2019-02-11T07:58:50.936Z,5.43
2019-02-11T07:59:51.054Z,5.44
2019-02-11T08:00:51.248Z,5.40
2019-02-11T08:01:51.483Z,5.29
2019-02-11T08:02:51.718Z,5.28
2019-02-11T08:03:51.953Z,5.22
2019-02-11T08:04:52.167Z,5.20
2019-02-11T08:05:52.389Z,5.08
2019-02-11T08:06:52.694Z,5.05
2019-02-11T08:07:52.843Z,4.90
2019-02-11T08:08:53.045Z,4.92
2019-02-11T08:09:53.272Z,4.94
2019-02-11T08:10:53.477Z,4.89
2019-02-11T08:11:53.676Z,4.90
2019-02-11T08:12:53.943Z,4.89
2019-02-11T08:13:54.158Z,4.89
2019-02-11T08:14:54.420Z,4.89
2019-02-11T08:15:54.576Z,4.87
2019-02-11T08:16:54.800Z,5.07
2019-02-11T08:17:55.024Z,5.01
2019-02-11T08:18:55.275Z,5.07
2019-02-11T08:19:55.804Z,4.94
2019-02-11T08:20:55.766Z,4.98
2019-02-11T08:21:55.906Z,5.08
2019-02-11T08:22:56.175Z,4.90
2019-02-11T08:23:56.378Z,5.18
2019-02-11T08:24:56.618Z,5.12
2019-02-11T08:25:56.857Z,5.13
2019-02-11T08:26:57.056Z,5.18
2019-02-11T08:27:57.291Z,5.16
2019-02-11T08:28:57.507Z,5.23
2019-02-11T08:29:57.688Z,5.20
2019-02-11T08:30:57.970Z,5.22
2019-02-11T08:31:58.264Z,5.40
2019-02-11T08:32:58.407Z,5.43
2019-02-11T08:33:58.599Z,5.33
2019-02-11T08:34:58.821Z,5.47
2019-02-11T08:35:59.084Z,5.52
2019-02-11T08:36:59.307Z,5.61
2019-02-11T08:37:59.547Z,5.58
2019-02-11T08:38:59.763Z,5.67
2019-02-11T08:40:00.071Z,5.51
2019-02-11T08:41:00.204Z,5.59
2019-02-11T08:42:00.423Z,5.55
2019-02-11T08:43:01.341Z,5.56
2019-02-11T08:44:00.890Z,5.64
2019-02-11T08:45:01.087Z,5.62
2019-02-11T08:46:01.340Z,5.56
2019-02-11T08:47:01.539Z,5.76
2019-02-11T08:48:01.840Z,5.73
2019-02-11T08:49:01.993Z,5.74
2019-02-11T08:50:02.185Z,5.67
2019-02-11T08:51:02.421Z,5.73
2019-02-11T08:52:02.642Z,5.70
2019-02-11T08:53:02.876Z,5.70
2019-02-11T08:54:03.092Z,5.77
2019-02-11T08:55:03.313Z,5.73
2019-02-11T08:56:03.640Z,5.77
2019-02-11T08:57:03.717Z,5.83
2019-02-11T08:58:03.972Z,5.80
2019-02-11T08:59:04.196Z,5.73
2019-02-11T09:00:04.408Z,5.79
2019-02-11T09:01:04.651Z,5.76
2019-02-11T09:02:04.856Z,5.77
2019-02-11T09:03:05.086Z,5.80
2019-02-11T09:04:05.370Z,5.77
2019-02-11T09:05:05.597Z,5.76
2019-02-11T09:06:05.786Z,5.73
2019-02-11T09:07:05.980Z,5.72
2019-02-11T09:08:06.210Z,5.74
2019-02-11T09:09:06.452Z,5.67
2019-02-11T09:10:06.655Z,5.62
2019-02-11T09:11:06.891Z,5.79
2019-02-11T09:12:07.098Z,5.73
2019-02-11T09:13:07.408Z,5.72
2019-02-11T09:14:07.568Z,5.74
2019-02-11T09:15:07.767Z,5.73
2019-02-11T09:16:07.996Z,5.70
2019-02-11T09:17:10.350Z,5.76
2019-02-11T09:18:08.446Z,5.73
2019-02-11T09:19:08.649Z,5.69
2019-02-11T09:20:08.878Z,5.79
2019-02-11T09:21:09.206Z,5.76
2019-02-11T09:22:09.309Z,5.73
2019-02-11T09:23:09.551Z,5.79
2019-02-11T09:24:09.738Z,5.84
2019-02-11T09:25:09.972Z,5.87
2019-02-11T09:26:10.219Z,5.95
2019-02-11T09:27:10.419Z,5.91
2019-02-11T09:28:10.659Z,5.98
2019-02-11T09:29:10.943Z,5.95
2019-02-11T09:30:11.054Z,5.83
2019-02-11T09:31:11.311Z,5.92
2019-02-11T09:32:11.524Z,5.90
2019-02-11T09:33:11.758Z,5.79
2019-02-11T09:34:11.969Z,5.91
2019-02-11T09:35:12.212Z,5.94
2019-02-11T09:36:12.406Z,5.91
2019-02-11T09:37:12.678Z,5.87
2019-02-11T09:38:12.883Z,6.01
2019-02-11T09:39:13.076Z,6.02
2019-02-11T09:40:13.310Z,6.07
2019-02-11T09:41:13.541Z,6.10
2019-02-11T09:42:13.737Z,6.12
2019-02-11T09:43:13.989Z,6.10
2019-02-11T09:44:14.222Z,6.09
2019-02-11T09:45:14.484Z,6.09
2019-02-11T09:46:14.740Z,6.12
2019-02-11T09:47:14.886Z,6.10
2019-02-11T09:48:15.117Z,6.13
2019-02-11T09:49:15.351Z,6.17
2019-02-11T09:50:15.580Z,6.05
2019-02-11T09:51:15.809Z,6.31
2019-02-11T09:52:15.984Z,6.34
2019-02-11T09:53:16.212Z,6.32
2019-02-11T09:54:16.597Z,6.29
2019-02-11T09:55:16.715Z,6.28
2019-02-11T09:56:16.952Z,6.31
2019-02-11T09:57:17.143Z,6.32
2019-02-11T09:58:17.600Z,6.39
2019-02-11T09:59:17.622Z,6.34
2019-02-11T10:00:18.035Z,6.39
2019-02-11T10:01:18.063Z,6.39
2019-02-11T10:02:18.353Z,6.47
2019-02-11T10:03:18.455Z,6.38
2019-02-11T10:04:18.722Z,6.38
2019-02-11T10:05:18.951Z,6.47
2019-02-11T10:06:19.174Z,6.41
2019-02-11T10:07:19.370Z,6.53
2019-02-11T10:08:19.595Z,6.52
2019-02-11T10:09:19.817Z,6.56
2019-02-11T10:10:20.107Z,6.54
2019-02-11T10:11:20.253Z,6.52
2019-02-11T10:12:21.378Z,6.46
2019-02-11T10:13:20.689Z,6.47
2019-02-11T10:14:20.921Z,6.49
2019-02-11T10:15:21.152Z,6.53
2019-02-11T10:16:22.251Z,6.50
2019-02-11T10:17:29.435Z,6.60
2019-02-11T10:18:22.845Z,6.50
2019-02-11T10:19:22.132Z,6.53
2019-02-11T10:20:22.293Z,6.64
2019-02-11T10:21:22.507Z,6.54
2019-02-11T10:22:22.728Z,6.56
2019-02-11T10:23:22.950Z,6.62
2019-02-11T10:24:23.183Z,6.59
2019-02-11T10:25:24.159Z,6.54
2019-02-11T10:26:23.630Z,6.59
2019-02-11T10:27:23.966Z,6.64
2019-02-11T10:28:24.062Z,6.75
2019-02-11T10:29:24.301Z,6.82
2019-02-11T10:30:24.509Z,6.70
2019-02-11T10:31:24.740Z,6.74
2019-02-11T10:32:24.945Z,6.74
2019-02-11T10:33:25.174Z,6.72
2019-02-11T10:34:25.420Z,6.75
2019-02-11T10:35:25.713Z,6.83
2019-02-11T10:36:25.936Z,6.72
2019-02-11T10:37:26.073Z,6.74
2019-02-11T10:38:27.604Z,6.86
2019-02-11T10:39:26.536Z,6.72
2019-02-11T10:40:26.748Z,6.75
2019-02-11T10:41:26.985Z,6.82
2019-02-11T10:42:27.168Z,6.83
2019-02-11T10:43:27.488Z,6.80
2019-02-11T10:44:27.629Z,6.89
2019-02-11T10:45:36.245Z,7.03
2019-02-11T10:46:29.062Z,7.04
2019-02-11T10:47:28.310Z,7.08
2019-02-11T10:48:28.508Z,7.11
2019-02-11T10:49:28.760Z,7.11
2019-02-11T10:50:29.024Z,7.10
2019-02-11T10:51:29.219Z,7.23
2019-02-11T10:52:29.443Z,7.19
2019-02-11T10:53:29.642Z,7.31
2019-02-11T10:54:29.896Z,7.23
2019-02-11T10:55:30.110Z,7.15
2019-02-11T10:56:30.315Z,7.15
2019-02-11T10:57:30.570Z,7.08
2019-02-11T10:58:30.769Z,7.01
2019-02-11T10:59:31.013Z,7.03
2019-02-11T11:00:31.343Z,7.07
2019-02-11T11:01:31.435Z,7.11
2019-02-11T11:02:31.675Z,7.22
2019-02-11T11:03:31.880Z,7.23
2019-02-11T11:04:32.103Z,7.31
2019-02-11T11:05:32.348Z,7.25
2019-02-11T11:06:32.565Z,7.18
2019-02-11T11:07:32.798Z,7.22
2019-02-11T11:08:33.148Z,7.15
2019-02-11T11:09:33.228Z,7.13
2019-02-11T11:10:33.466Z,7.22
2019-02-11T11:11:33.674Z,7.19
2019-02-11T11:12:33.915Z,7.21
2019-02-11T11:13:34.119Z,7.10
2019-02-11T11:14:34.362Z,7.13
2019-02-11T11:15:34.562Z,7.05
2019-02-11T11:16:34.830Z,7.18
2019-02-11T11:17:35.031Z,7.21
2019-02-11T11:18:35.238Z,7.21
2019-02-11T11:19:35.481Z,7.23
2019-02-11T11:20:35.695Z,7.25
2019-02-11T11:21:35.892Z,7.18
2019-02-11T11:22:36.148Z,7.21
2019-02-11T11:23:36.357Z,7.25
2019-02-11T11:24:36.671Z,7.13
2019-02-11T11:25:36.781Z,7.26
2019-02-11T11:26:36.990Z,7.33
2019-02-11T11:27:37.247Z,7.29
2019-02-11T11:28:37.475Z,7.29
2019-02-11T11:29:37.720Z,7.37
2019-02-11T11:30:37.927Z,7.48
2019-02-11T11:31:38.147Z,7.46
2019-02-11T11:32:38.397Z,7.61
2019-02-11T11:33:38.676Z,7.46
2019-02-11T11:34:39.064Z,7.46
2019-02-11T11:35:39.061Z,7.47
2019-02-11T11:36:39.260Z,7.33
2019-02-11T11:37:39.500Z,7.43
2019-02-11T11:38:39.688Z,7.44
2019-02-11T11:39:39.947Z,7.44
2019-02-11T11:40:40.171Z,7.48
2019-02-11T11:41:40.508Z,7.47
2019-02-11T11:42:40.611Z,7.58
2019-02-11T11:43:40.806Z,7.47
2019-02-11T11:44:41.030Z,7.39
2019-02-11T11:45:41.273Z,7.43
2019-02-11T11:46:46.900Z,7.41
2019-02-11T11:47:42.733Z,7.37
2019-02-11T11:48:41.937Z,7.33
2019-02-11T11:49:42.195Z,7.32
2019-02-11T11:50:42.415Z,7.28
2019-02-11T11:51:42.613Z,7.26
2019-02-11T11:52:42.853Z,7.31
2019-02-11T11:53:43.057Z,7.33
2019-02-11T11:54:43.259Z,7.36
2019-02-11T11:55:43.536Z,7.28
2019-02-11T11:56:43.766Z,7.10
2019-02-11T11:57:44.070Z,7.15
2019-02-11T11:58:44.193Z,7.28
2019-02-11T11:59:44.418Z,7.32
2019-02-11T12:00:44.669Z,7.31
2019-02-11T12:01:44.865Z,7.26
2019-02-11T12:03:00.343Z,7.29
2019-02-11T12:03:46.300Z,7.29
2019-02-11T12:04:45.523Z,7.31
2019-02-11T12:05:45.804Z,7.36
2019-02-11T12:06:45.969Z,7.29
2019-02-11T12:07:46.234Z,7.31
2019-02-11T12:08:46.435Z,7.29
2019-02-11T12:09:46.658Z,7.29
2019-02-11T12:10:46.933Z,7.28
2019-02-11T12:11:47.089Z,7.14
2019-02-11T12:12:47.370Z,7.14
2019-02-11T12:13:47.578Z,7.14
2019-02-11T12:14:47.975Z,7.07
2019-02-11T12:15:48.054Z,7.14
2019-02-11T12:16:57.014Z,7.08
2019-02-11T12:17:49.470Z,7.14
2019-02-11T12:18:48.675Z,7.04
2019-02-11T12:19:48.900Z,7.18
2019-02-11T12:20:49.157Z,7.14
2019-02-11T12:21:49.338Z,7.05
2019-02-11T12:22:49.711Z,7.13
2019-02-11T12:23:49.796Z,7.31
2019-02-11T12:24:50.017Z,7.25
2019-02-11T12:25:50.265Z,7.15
2019-02-11T12:26:50.460Z,7.15
2019-02-11T12:27:50.686Z,7.15
2019-02-11T12:28:50.916Z,7.10
2019-02-11T12:29:51.375Z,7.08
2019-02-11T12:30:53.438Z,7.07
2019-02-11T12:31:51.568Z,7.05
2019-02-11T12:32:54.351Z,7.18
2019-02-11T12:33:52.007Z,6.97
2019-02-11T12:34:52.245Z,6.93
2019-02-11T12:35:52.492Z,6.87
2019-02-11T12:36:52.722Z,6.78
2019-02-11T12:37:52.925Z,6.74
2019-02-11T12:38:53.165Z,6.59
2019-02-11T12:39:53.323Z,6.50
2019-02-11T12:40:53.598Z,6.32
2019-02-11T12:41:53.795Z,6.35
2019-02-11T12:42:54.399Z,6.35
2019-02-11T12:43:54.244Z,6.38
2019-02-11T12:44:54.459Z,6.25
2019-02-11T12:45:54.703Z,6.29
2019-02-11T12:46:54.926Z,6.17
2019-02-11T12:47:55.258Z,6.09
2019-02-11T12:48:55.344Z,6.12
2019-02-11T12:49:55.572Z,6.15
2019-02-11T12:50:55.818Z,6.32
2019-02-11T12:51:56.011Z,6.39
2019-02-11T12:52:56.252Z,6.38
2019-02-11T12:53:56.455Z,6.50
2019-02-11T12:54:56.682Z,6.53
2019-02-11T12:55:57.019Z,6.64
2019-02-11T12:56:57.122Z,6.62
2019-02-11T12:57:57.355Z,6.72
2019-02-11T12:58:57.556Z,6.71
2019-02-11T12:59:57.783Z,6.71
2019-02-11T13:00:58.041Z,6.64
2019-02-11T13:01:58.226Z,6.78
2019-02-11T13:02:58.449Z,6.71
2019-02-11T13:03:58.762Z,6.90
2019-02-11T13:04:58.883Z,6.93
2019-02-11T13:05:59.195Z,7.03
2019-02-11T13:06:59.314Z,7.04
2019-02-11T13:07:59.544Z,7.04
2019-02-11T13:08:59.793Z,7.10
2019-02-11T13:10:00.013Z,7.07
2019-02-11T13:11:00.308Z,7.04
2019-02-11T13:12:00.744Z,7.11
2019-02-11T13:13:00.659Z,7.13
2019-02-11T13:14:00.910Z,7.18
2019-02-11T13:15:01.119Z,7.14
2019-02-11T13:16:02.755Z,7.21
2019-02-11T13:17:14.310Z,7.18
2019-02-11T13:18:02.842Z,7.23
2019-02-11T13:19:01.997Z,7.32
2019-02-11T13:20:08.329Z,7.28
2019-02-11T13:21:03.568Z,7.33